sensor_id;sensor_type;location;lat;lon;timestamp;P1;durP1;ratioP1;P2;durP2;ratioP2
12048;SDS011;6085;49.452;8.502;2023-07-24T00:03:40;2.75;;;1.92;;
12048;SDS011;6085;49.452;8.502;2023-07-24T00:07:43;1.90;;;1.80;;
12048;SDS011;6085;49.452;8.502;2023-07-24T00:11:45;2.28;;;1.92;;
12048;SDS011;6085;49.452;8.502;2023-07-24T00:15:47;2.45;;;2.00;;
12048;SDS011;6085;49.452;8.502;2023-07-24T00:19:50;3.70;;;2.40;;
12048;SDS011;6085;49.452;8.502;2023-07-24T00:23:52;3.05;;;2.05;;
12048;SDS011;6085;49.452;8.502;2023-07-24T00:27:54;4.57;;;2.55;;
12048;SDS011;6085;49.452;8.502;2023-07-24T00:31:56;3.08;;;2.30;;
12048;SDS011;6085;49.452;8.502;2023-07-24T00:35:59;3.55;;;2.20;;
12048;SDS011;6085;49.452;8.502;2023-07-24T00:40:01;3.03;;;2.60;;
12048;SDS011;6085;49.452;8.502;2023-07-24T00:44:04;4.47;;;2.72;;
12048;SDS011;6085;49.452;8.502;2023-07-24T00:48:06;3.85;;;3.45;;
12048;SDS011;6085;49.452;8.502;2023-07-24T00:52:09;3.88;;;3.45;;
12048;SDS011;6085;49.452;8.502;2023-07-24T00:56:12;3.97;;;3.50;;
12048;SDS011;6085;49.452;8.502;2023-07-24T01:00:15;3.53;;;2.60;;
12048;SDS011;6085;49.452;8.502;2023-07-24T01:04:17;4.53;;;3.55;;
12048;SDS011;6085;49.452;8.502;2023-07-24T01:08:21;5.30;;;3.50;;
12048;SDS011;6085;49.452;8.502;2023-07-24T01:12:26;6.30;;;3.90;;
12048;SDS011;6085;49.452;8.502;2023-07-24T01:16:33;5.18;;;3.50;;
12048;SDS011;6085;49.452;8.502;2023-07-24T01:20:40;4.63;;;3.53;;
12048;SDS011;6085;49.452;8.502;2023-07-24T01:24:57;4.65;;;3.40;;
12048;SDS011;6085;49.452;8.502;2023-07-24T01:29:03;3.20;;;2.90;;
12048;SDS011;6085;49.452;8.502;2023-07-24T01:33:05;4.18;;;3.22;;
12048;SDS011;6085;49.452;8.502;2023-07-24T01:37:08;5.03;;;3.63;;
12048;SDS011;6085;49.452;8.502;2023-07-24T01:41:12;4.72;;;3.90;;
12048;SDS011;6085;49.452;8.502;2023-07-24T01:45:15;6.93;;;4.10;;
12048;SDS011;6085;49.452;8.502;2023-07-24T01:49:17;4.20;;;3.20;;
12048;SDS011;6085;49.452;8.502;2023-07-24T01:53:19;4.00;;;3.35;;
12048;SDS011;6085;49.452;8.502;2023-07-24T01:57:21;4.30;;;2.92;;
12048;SDS011;6085;49.452;8.502;2023-07-24T02:01:27;5.75;;;3.13;;
12048;SDS011;6085;49.452;8.502;2023-07-24T02:05:28;4.82;;;3.10;;
12048;SDS011;6085;49.452;8.502;2023-07-24T02:09:30;3.47;;;2.92;;
12048;SDS011;6085;49.452;8.502;2023-07-24T02:13:32;3.05;;;2.67;;
12048;SDS011;6085;49.452;8.502;2023-07-24T02:17:36;3.30;;;2.88;;
12048;SDS011;6085;49.452;8.502;2023-07-24T02:21:39;3.63;;;2.55;;
12048;SDS011;6085;49.452;8.502;2023-07-24T02:25:41;3.80;;;2.85;;
12048;SDS011;6085;49.452;8.502;2023-07-24T02:29:44;3.78;;;2.58;;
12048;SDS011;6085;49.452;8.502;2023-07-24T02:33:47;4.10;;;3.05;;
12048;SDS011;6085;49.452;8.502;2023-07-24T02:37:49;3.47;;;2.58;;
12048;SDS011;6085;49.452;8.502;2023-07-24T02:41:51;4.18;;;2.65;;
12048;SDS011;6085;49.452;8.502;2023-07-24T02:45:53;4.60;;;3.10;;
12048;SDS011;6085;49.452;8.502;2023-07-24T02:49:56;4.60;;;3.20;;
12048;SDS011;6085;49.452;8.502;2023-07-24T02:53:58;4.13;;;3.00;;
12048;SDS011;6085;49.452;8.502;2023-07-24T02:58:00;2.90;;;2.50;;
12048;SDS011;6085;49.452;8.502;2023-07-24T03:02:02;3.38;;;2.65;;
12048;SDS011;6085;49.452;8.502;2023-07-24T03:06:06;4.28;;;2.90;;
12048;SDS011;6085;49.452;8.502;2023-07-24T03:10:09;3.72;;;2.83;;
12048;SDS011;6085;49.452;8.502;2023-07-24T03:14:11;3.58;;;2.55;;
12048;SDS011;6085;49.452;8.502;2023-07-24T03:18:13;4.20;;;2.78;;
12048;SDS011;6085;49.452;8.502;2023-07-24T03:22:16;3.17;;;2.63;;
12048;SDS011;6085;49.452;8.502;2023-07-24T03:26:18;3.45;;;2.80;;
12048;SDS011;6085;49.452;8.502;2023-07-24T03:30:20;3.65;;;2.60;;
12048;SDS011;6085;49.452;8.502;2023-07-24T03:34:22;3.50;;;2.45;;
12048;SDS011;6085;49.452;8.502;2023-07-24T03:38:26;3.50;;;2.40;;
12048;SDS011;6085;49.452;8.502;2023-07-24T03:42:28;3.67;;;2.83;;
12048;SDS011;6085;49.452;8.502;2023-07-24T03:46:31;3.75;;;2.95;;
12048;SDS011;6085;49.452;8.502;2023-07-24T03:50:34;5.07;;;2.78;;
12048;SDS011;6085;49.452;8.502;2023-07-24T03:54:37;4.88;;;2.70;;
12048;SDS011;6085;49.452;8.502;2023-07-24T03:58:39;3.30;;;2.58;;
12048;SDS011;6085;49.452;8.502;2023-07-24T04:02:42;3.70;;;2.92;;
12048;SDS011;6085;49.452;8.502;2023-07-24T04:06:43;3.40;;;2.47;;
12048;SDS011;6085;49.452;8.502;2023-07-24T04:10:48;3.65;;;2.97;;
12048;SDS011;6085;49.452;8.502;2023-07-24T04:14:50;2.42;;;2.13;;
12048;SDS011;6085;49.452;8.502;2023-07-24T04:18:52;4.43;;;2.78;;
12048;SDS011;6085;49.452;8.502;2023-07-24T04:22:54;4.57;;;2.83;;
12048;SDS011;6085;49.452;8.502;2023-07-24T04:26:57;3.67;;;2.80;;
12048;SDS011;6085;49.452;8.502;2023-07-24T04:30:59;3.60;;;2.72;;
12048;SDS011;6085;49.452;8.502;2023-07-24T04:35:02;4.53;;;2.55;;
12048;SDS011;6085;49.452;8.502;2023-07-24T04:39:04;3.38;;;2.53;;
12048;SDS011;6085;49.452;8.502;2023-07-24T04:43:08;4.07;;;3.00;;
12048;SDS011;6085;49.452;8.502;2023-07-24T04:47:10;4.15;;;2.60;;
12048;SDS011;6085;49.452;8.502;2023-07-24T04:51:12;3.65;;;2.80;;
12048;SDS011;6085;49.452;8.502;2023-07-24T04:55:14;4.25;;;2.72;;
12048;SDS011;6085;49.452;8.502;2023-07-24T04:59:19;4.93;;;2.72;;
12048;SDS011;6085;49.452;8.502;2023-07-24T05:03:21;3.15;;;2.53;;
12048;SDS011;6085;49.452;8.502;2023-07-24T05:07:23;3.70;;;2.90;;
12048;SDS011;6085;49.452;8.502;2023-07-24T05:11:25;5.15;;;3.03;;
12048;SDS011;6085;49.452;8.502;2023-07-24T05:15:28;3.35;;;2.55;;
12048;SDS011;6085;49.452;8.502;2023-07-24T05:19:30;5.13;;;2.95;;
12048;SDS011;6085;49.452;8.502;2023-07-24T05:23:32;3.72;;;2.95;;
12048;SDS011;6085;49.452;8.502;2023-07-24T05:27:34;3.03;;;2.47;;
12048;SDS011;6085;49.452;8.502;2023-07-24T05:31:39;2.88;;;2.47;;
12048;SDS011;6085;49.452;8.502;2023-07-24T05:35:41;3.75;;;2.97;;
12048;SDS011;6085;49.452;8.502;2023-07-24T05:39:43;3.67;;;2.58;;
12048;SDS011;6085;49.452;8.502;2023-07-24T05:43:45;3.80;;;2.90;;
12048;SDS011;6085;49.452;8.502;2023-07-24T05:47:48;6.15;;;3.05;;
12048;SDS011;6085;49.452;8.502;2023-07-24T05:51:50;4.10;;;3.00;;
12048;SDS011;6085;49.452;8.502;2023-07-24T05:55:57;4.00;;;2.95;;
12048;SDS011;6085;49.452;8.502;2023-07-24T06:00:00;4.25;;;3.05;;
12048;SDS011;6085;49.452;8.502;2023-07-24T06:04:03;4.07;;;2.83;;
12048;SDS011;6085;49.452;8.502;2023-07-24T06:08:07;3.60;;;2.70;;
12048;SDS011;6085;49.452;8.502;2023-07-24T06:12:11;3.83;;;3.17;;
12048;SDS011;6085;49.452;8.502;2023-07-24T06:16:12;4.15;;;3.03;;
12048;SDS011;6085;49.452;8.502;2023-07-24T06:20:16;3.83;;;2.88;;
12048;SDS011;6085;49.452;8.502;2023-07-24T06:24:18;4.53;;;3.28;;
12048;SDS011;6085;49.452;8.502;2023-07-24T06:28:20;4.70;;;2.75;;
12048;SDS011;6085;49.452;8.502;2023-07-24T06:32:22;3.78;;;3.17;;
12048;SDS011;6085;49.452;8.502;2023-07-24T06:36:26;4.25;;;3.17;;
12048;SDS011;6085;49.452;8.502;2023-07-24T06:40:28;4.40;;;3.30;;
12048;SDS011;6085;49.452;8.502;2023-07-24T06:44:29;5.40;;;3.63;;
12048;SDS011;6085;49.452;8.502;2023-07-24T06:48:31;5.20;;;3.22;;
12048;SDS011;6085;49.452;8.502;2023-07-24T06:52:35;4.82;;;3.22;;
12048;SDS011;6085;49.452;8.502;2023-07-24T06:56:37;3.15;;;2.83;;
12048;SDS011;6085;49.452;8.502;2023-07-24T07:00:39;3.92;;;3.08;;
12048;SDS011;6085;49.452;8.502;2023-07-24T07:04:41;4.10;;;2.97;;
12048;SDS011;6085;49.452;8.502;2023-07-24T07:08:44;4.90;;;3.47;;
12048;SDS011;6085;49.452;8.502;2023-07-24T07:12:46;4.57;;;2.72;;
12048;SDS011;6085;49.452;8.502;2023-07-24T07:16:48;4.65;;;3.00;;
12048;SDS011;6085;49.452;8.502;2023-07-24T07:20:50;3.45;;;2.63;;
12048;SDS011;6085;49.452;8.502;2023-07-24T07:24:55;4.78;;;3.10;;
12048;SDS011;6085;49.452;8.502;2023-07-24T07:28:57;4.68;;;3.08;;
12048;SDS011;6085;49.452;8.502;2023-07-24T07:32:59;4.07;;;3.45;;
12048;SDS011;6085;49.452;8.502;2023-07-24T07:37:01;5.68;;;3.40;;
12048;SDS011;6085;49.452;8.502;2023-07-24T07:41:05;4.63;;;3.05;;
12048;SDS011;6085;49.452;8.502;2023-07-24T07:45:07;4.93;;;3.05;;
12048;SDS011;6085;49.452;8.502;2023-07-24T07:49:10;6.75;;;3.78;;
12048;SDS011;6085;49.452;8.502;2023-07-24T07:53:12;4.30;;;3.33;;
12048;SDS011;6085;49.452;8.502;2023-07-24T07:57:15;4.78;;;3.30;;
12048;SDS011;6085;49.452;8.502;2023-07-24T08:01:17;4.72;;;3.22;;
12048;SDS011;6085;49.452;8.502;2023-07-24T08:05:19;5.88;;;3.53;;
12048;SDS011;6085;49.452;8.502;2023-07-24T08:09:21;5.15;;;3.55;;
12048;SDS011;6085;49.452;8.502;2023-07-24T08:13:25;4.28;;;3.17;;
12048;SDS011;6085;49.452;8.502;2023-07-24T08:17:27;4.97;;;3.20;;
12048;SDS011;6085;49.452;8.502;2023-07-24T08:21:29;3.67;;;3.00;;
12048;SDS011;6085;49.452;8.502;2023-07-24T08:25:31;3.00;;;2.60;;
12048;SDS011;6085;49.452;8.502;2023-07-24T08:29:34;6.10;;;3.15;;
12048;SDS011;6085;49.452;8.502;2023-07-24T08:33:38;4.25;;;3.28;;
12048;SDS011;6085;49.452;8.502;2023-07-24T08:37:42;5.43;;;3.28;;
12048;SDS011;6085;49.452;8.502;2023-07-24T08:41:44;5.00;;;3.50;;
12048;SDS011;6085;49.452;8.502;2023-07-24T08:45:47;6.13;;;3.70;;
12048;SDS011;6085;49.452;8.502;2023-07-24T08:49:50;5.63;;;3.15;;
12048;SDS011;6085;49.452;8.502;2023-07-24T08:53:53;4.10;;;3.38;;
12048;SDS011;6085;49.452;8.502;2023-07-24T08:57:55;5.43;;;4.05;;
12048;SDS011;6085;49.452;8.502;2023-07-24T09:01:59;6.05;;;3.50;;
12048;SDS011;6085;49.452;8.502;2023-07-24T09:06:02;5.13;;;3.28;;
12048;SDS011;6085;49.452;8.502;2023-07-24T09:10:07;4.22;;;3.30;;
12048;SDS011;6085;49.452;8.502;2023-07-24T09:14:09;6.57;;;3.88;;
12048;SDS011;6085;49.452;8.502;2023-07-24T09:18:23;4.40;;;3.15;;
12048;SDS011;6085;49.452;8.502;2023-07-24T09:22:25;4.22;;;3.20;;
12048;SDS011;6085;49.452;8.502;2023-07-24T09:26:27;5.30;;;3.55;;
12048;SDS011;6085;49.452;8.502;2023-07-24T09:30:29;6.22;;;3.70;;
12048;SDS011;6085;49.452;8.502;2023-07-24T09:34:33;6.43;;;3.75;;
12048;SDS011;6085;49.452;8.502;2023-07-24T09:38:35;4.15;;;3.50;;
12048;SDS011;6085;49.452;8.502;2023-07-24T09:42:38;5.38;;;3.33;;
12048;SDS011;6085;49.452;8.502;2023-07-24T09:46:40;4.63;;;3.47;;
12048;SDS011;6085;49.452;8.502;2023-07-24T09:50:46;3.63;;;3.10;;
12048;SDS011;6085;49.452;8.502;2023-07-24T09:54:54;4.65;;;3.50;;
12048;SDS011;6085;49.452;8.502;2023-07-24T09:59:00;4.75;;;3.17;;
12048;SDS011;6085;49.452;8.502;2023-07-24T10:03:03;4.05;;;2.83;;
12048;SDS011;6085;49.452;8.502;2023-07-24T10:07:07;4.53;;;3.35;;
12048;SDS011;6085;49.452;8.502;2023-07-24T10:11:11;4.78;;;3.70;;
12048;SDS011;6085;49.452;8.502;2023-07-24T10:15:14;4.35;;;3.33;;
12048;SDS011;6085;49.452;8.502;2023-07-24T10:19:16;4.10;;;3.30;;
12048;SDS011;6085;49.452;8.502;2023-07-24T10:23:19;5.15;;;3.20;;
12048;SDS011;6085;49.452;8.502;2023-07-24T10:27:24;4.53;;;3.20;;
12048;SDS011;6085;49.452;8.502;2023-07-24T10:31:26;4.13;;;2.72;;
12048;SDS011;6085;49.452;8.502;2023-07-24T10:35:35;4.82;;;3.58;;
12048;SDS011;6085;49.452;8.502;2023-07-24T10:39:40;4.50;;;3.38;;
12048;SDS011;6085;49.452;8.502;2023-07-24T10:43:43;3.80;;;2.88;;
12048;SDS011;6085;49.452;8.502;2023-07-24T10:47:46;3.40;;;2.55;;
12048;SDS011;6085;49.452;8.502;2023-07-24T10:51:49;3.88;;;2.70;;
12048;SDS011;6085;49.452;8.502;2023-07-24T10:55:59;3.28;;;2.85;;
12048;SDS011;6085;49.452;8.502;2023-07-24T11:00:01;3.55;;;3.03;;
12048;SDS011;6085;49.452;8.502;2023-07-24T11:04:03;6.53;;;3.13;;
12048;SDS011;6085;49.452;8.502;2023-07-24T11:08:08;3.72;;;2.80;;
12048;SDS011;6085;49.452;8.502;2023-07-24T11:12:15;3.33;;;2.75;;
12048;SDS011;6085;49.452;8.502;2023-07-24T11:16:17;3.55;;;2.97;;
12048;SDS011;6085;49.452;8.502;2023-07-24T11:20:19;3.20;;;2.72;;
12048;SDS011;6085;49.452;8.502;2023-07-24T11:24:21;5.03;;;3.00;;
12048;SDS011;6085;49.452;8.502;2023-07-24T11:28:25;5.20;;;3.30;;
12048;SDS011;6085;49.452;8.502;2023-07-24T11:32:26;4.93;;;3.30;;
12048;SDS011;6085;49.452;8.502;2023-07-24T11:36:29;5.05;;;3.05;;
12048;SDS011;6085;49.452;8.502;2023-07-24T11:40:31;4.53;;;3.42;;
12048;SDS011;6085;49.452;8.502;2023-07-24T11:44:35;3.90;;;3.15;;
12048;SDS011;6085;49.452;8.502;2023-07-24T11:48:40;3.05;;;2.70;;
12048;SDS011;6085;49.452;8.502;2023-07-24T11:52:44;4.03;;;3.13;;
12048;SDS011;6085;49.452;8.502;2023-07-24T11:56:47;5.20;;;3.53;;
12048;SDS011;6085;49.452;8.502;2023-07-24T12:00:51;5.95;;;2.80;;
12048;SDS011;6085;49.452;8.502;2023-07-24T12:04:54;5.65;;;2.90;;
12048;SDS011;6085;49.452;8.502;2023-07-24T12:09:01;4.00;;;2.92;;
12048;SDS011;6085;49.452;8.502;2023-07-24T12:13:04;3.90;;;2.70;;
12048;SDS011;6085;49.452;8.502;2023-07-24T12:17:08;7.63;;;3.22;;
12048;SDS011;6085;49.452;8.502;2023-07-24T12:21:14;4.15;;;3.00;;
12048;SDS011;6085;49.452;8.502;2023-07-24T12:25:16;4.85;;;3.10;;
12048;SDS011;6085;49.452;8.502;2023-07-24T12:29:18;3.28;;;2.78;;
12048;SDS011;6085;49.452;8.502;2023-07-24T12:33:21;3.67;;;2.83;;
12048;SDS011;6085;49.452;8.502;2023-07-24T12:37:23;3.10;;;2.58;;
12048;SDS011;6085;49.452;8.502;2023-07-24T12:41:25;4.05;;;3.25;;
12048;SDS011;6085;49.452;8.502;2023-07-24T12:45:27;4.18;;;3.13;;
12048;SDS011;6085;49.452;8.502;2023-07-24T12:49:31;3.83;;;3.05;;
12048;SDS011;6085;49.452;8.502;2023-07-24T12:53:33;3.40;;;2.78;;
12048;SDS011;6085;49.452;8.502;2023-07-24T12:57:35;4.55;;;3.20;;
12048;SDS011;6085;49.452;8.502;2023-07-24T13:01:36;3.15;;;2.72;;
12048;SDS011;6085;49.452;8.502;2023-07-24T13:05:40;3.30;;;2.55;;
12048;SDS011;6085;49.452;8.502;2023-07-24T13:09:42;3.17;;;2.80;;
12048;SDS011;6085;49.452;8.502;2023-07-24T13:13:43;3.42;;;2.60;;
12048;SDS011;6085;49.452;8.502;2023-07-24T13:17:45;3.42;;;2.85;;
12048;SDS011;6085;49.452;8.502;2023-07-24T13:21:50;4.60;;;2.88;;
12048;SDS011;6085;49.452;8.502;2023-07-24T13:25:52;4.20;;;3.17;;
12048;SDS011;6085;49.452;8.502;2023-07-24T13:29:54;4.55;;;3.50;;
12048;SDS011;6085;49.452;8.502;2023-07-24T13:33:56;4.70;;;2.88;;
12048;SDS011;6085;49.452;8.502;2023-07-24T13:37:59;3.92;;;2.83;;
12048;SDS011;6085;49.452;8.502;2023-07-24T13:42:01;5.47;;;3.08;;
12048;SDS011;6085;49.452;8.502;2023-07-24T13:46:03;3.42;;;2.55;;
12048;SDS011;6085;49.452;8.502;2023-07-24T13:50:07;4.05;;;3.35;;
12048;SDS011;6085;49.452;8.502;2023-07-24T13:54:11;4.13;;;2.80;;
12048;SDS011;6085;49.452;8.502;2023-07-24T13:58:13;4.40;;;3.00;;
12048;SDS011;6085;49.452;8.502;2023-07-24T14:02:15;2.88;;;2.45;;
12048;SDS011;6085;49.452;8.502;2023-07-24T14:06:18;3.97;;;3.05;;
12048;SDS011;6085;49.452;8.502;2023-07-24T14:10:22;3.13;;;2.70;;
12048;SDS011;6085;49.452;8.502;2023-07-24T14:14:24;4.55;;;3.13;;
12048;SDS011;6085;49.452;8.502;2023-07-24T14:18:26;5.22;;;3.40;;
12048;SDS011;6085;49.452;8.502;2023-07-24T14:22:28;6.13;;;3.53;;
12048;SDS011;6085;49.452;8.502;2023-07-24T14:26:31;7.28;;;3.40;;
12048;SDS011;6085;49.452;8.502;2023-07-24T14:30:33;4.65;;;3.30;;
12048;SDS011;6085;49.452;8.502;2023-07-24T14:34:35;4.05;;;3.30;;
12048;SDS011;6085;49.452;8.502;2023-07-24T14:38:37;6.55;;;3.72;;
12048;SDS011;6085;49.452;8.502;2023-07-24T14:42:41;6.97;;;4.35;;
12048;SDS011;6085;49.452;8.502;2023-07-24T14:46:43;5.18;;;3.70;;
12048;SDS011;6085;49.452;8.502;2023-07-24T14:50:48;5.45;;;3.97;;
12048;SDS011;6085;49.452;8.502;2023-07-24T14:54:50;5.28;;;3.92;;
12048;SDS011;6085;49.452;8.502;2023-07-24T14:58:53;6.70;;;3.88;;
12048;SDS011;6085;49.452;8.502;2023-07-24T15:02:55;4.05;;;3.08;;
12048;SDS011;6085;49.452;8.502;2023-07-24T15:06:57;3.92;;;3.40;;
12048;SDS011;6085;49.452;8.502;2023-07-24T15:10:59;4.03;;;3.38;;
12048;SDS011;6085;49.452;8.502;2023-07-24T15:15:02;3.58;;;2.63;;
12048;SDS011;6085;49.452;8.502;2023-07-24T15:19:05;3.92;;;2.95;;
12048;SDS011;6085;49.452;8.502;2023-07-24T15:23:07;4.20;;;2.85;;
12048;SDS011;6085;49.452;8.502;2023-07-24T15:27:09;3.70;;;2.55;;
12048;SDS011;6085;49.452;8.502;2023-07-24T15:31:12;2.83;;;2.50;;
12048;SDS011;6085;49.452;8.502;2023-07-24T15:35:17;2.88;;;2.45;;
12048;SDS011;6085;49.452;8.502;2023-07-24T15:39:19;2.35;;;2.15;;
12048;SDS011;6085;49.452;8.502;2023-07-24T15:43:22;1.83;;;1.63;;
12048;SDS011;6085;49.452;8.502;2023-07-24T15:47:25;2.13;;;1.88;;
12048;SDS011;6085;49.452;8.502;2023-07-24T15:51:27;2.45;;;1.95;;
12048;SDS011;6085;49.452;8.502;2023-07-24T15:55:29;2.90;;;2.30;;
12048;SDS011;6085;49.452;8.502;2023-07-24T15:59:31;1.88;;;1.75;;
12048;SDS011;6085;49.452;8.502;2023-07-24T16:03:35;2.55;;;2.15;;
12048;SDS011;6085;49.452;8.502;2023-07-24T16:07:36;2.90;;;1.90;;
12048;SDS011;6085;49.452;8.502;2023-07-24T16:11:38;1.60;;;1.42;;
12048;SDS011;6085;49.452;8.502;2023-07-24T16:15:40;1.35;;;1.25;;
12048;SDS011;6085;49.452;8.502;2023-07-24T16:19:44;1.40;;;1.30;;
12048;SDS011;6085;49.452;8.502;2023-07-24T16:23:46;1.00;;;1.00;;
12048;SDS011;6085;49.452;8.502;2023-07-24T16:27:47;0.85;;;0.82;;
12048;SDS011;6085;49.452;8.502;2023-07-24T16:31:49;0.82;;;0.70;;
12048;SDS011;6085;49.452;8.502;2023-07-24T16:35:53;0.80;;;0.80;;
12048;SDS011;6085;49.452;8.502;2023-07-24T16:39:55;0.63;;;0.63;;
12048;SDS011;6085;49.452;8.502;2023-07-24T16:43:57;0.60;;;0.60;;
12048;SDS011;6085;49.452;8.502;2023-07-24T16:47:59;0.73;;;0.73;;
12048;SDS011;6085;49.452;8.502;2023-07-24T16:52:03;0.85;;;0.68;;
12048;SDS011;6085;49.452;8.502;2023-07-24T16:56:06;1.05;;;0.60;;
12048;SDS011;6085;49.452;8.502;2023-07-24T17:00:08;0.90;;;0.75;;
12048;SDS011;6085;49.452;8.502;2023-07-24T17:04:11;0.80;;;0.80;;
12048;SDS011;6085;49.452;8.502;2023-07-24T17:08:14;1.08;;;0.98;;
12048;SDS011;6085;49.452;8.502;2023-07-24T17:12:16;0.90;;;0.90;;
12048;SDS011;6085;49.452;8.502;2023-07-24T17:16:18;0.88;;;0.60;;
12048;SDS011;6085;49.452;8.502;2023-07-24T17:20:20;0.90;;;0.90;;
12048;SDS011;6085;49.452;8.502;2023-07-24T17:24:23;1.35;;;1.20;;
12048;SDS011;6085;49.452;8.502;2023-07-24T17:28:25;0.70;;;0.70;;
12048;SDS011;6085;49.452;8.502;2023-07-24T17:32:27;0.75;;;0.75;;
12048;SDS011;6085;49.452;8.502;2023-07-24T17:36:29;1.40;;;0.93;;
12048;SDS011;6085;49.452;8.502;2023-07-24T17:40:32;1.00;;;0.90;;
12048;SDS011;6085;49.452;8.502;2023-07-24T17:44:36;0.80;;;0.80;;
12048;SDS011;6085;49.452;8.502;2023-07-24T17:48:38;0.60;;;0.60;;
12048;SDS011;6085;49.452;8.502;2023-07-24T17:52:43;1.25;;;0.88;;
12048;SDS011;6085;49.452;8.502;2023-07-24T17:56:46;1.13;;;1.00;;
12048;SDS011;6085;49.452;8.502;2023-07-24T18:00:48;0.65;;;0.65;;
12048;SDS011;6085;49.452;8.502;2023-07-24T18:04:50;0.80;;;0.80;;
12048;SDS011;6085;49.452;8.502;2023-07-24T18:08:52;1.08;;;0.85;;
12048;SDS011;6085;49.452;8.502;2023-07-24T18:12:55;0.90;;;0.82;;
12048;SDS011;6085;49.452;8.502;2023-07-24T18:16:57;1.30;;;1.20;;
12048;SDS011;6085;49.452;8.502;2023-07-24T18:20:59;0.82;;;0.82;;
12048;SDS011;6085;49.452;8.502;2023-07-24T18:25:04;1.40;;;0.73;;
12048;SDS011;6085;49.452;8.502;2023-07-24T18:29:07;0.77;;;0.77;;
12048;SDS011;6085;49.452;8.502;2023-07-24T18:33:09;1.25;;;1.05;;
12048;SDS011;6085;49.452;8.502;2023-07-24T18:37:11;1.08;;;0.95;;
12048;SDS011;6085;49.452;8.502;2023-07-24T18:41:13;1.17;;;0.90;;
12048;SDS011;6085;49.452;8.502;2023-07-24T18:45:17;0.90;;;0.90;;
12048;SDS011;6085;49.452;8.502;2023-07-24T18:49:19;2.13;;;0.88;;
12048;SDS011;6085;49.452;8.502;2023-07-24T18:53:21;0.70;;;0.70;;
12048;SDS011;6085;49.452;8.502;2023-07-24T18:57:23;0.75;;;0.75;;
12048;SDS011;6085;49.452;8.502;2023-07-24T19:01:26;0.80;;;0.80;;
12048;SDS011;6085;49.452;8.502;2023-07-24T19:05:28;0.90;;;0.90;;
12048;SDS011;6085;49.452;8.502;2023-07-24T19:09:30;1.02;;;1.02;;
12048;SDS011;6085;49.452;8.502;2023-07-24T19:13:32;1.10;;;1.10;;
12048;SDS011;6085;49.452;8.502;2023-07-24T19:17:35;1.13;;;1.05;;
12048;SDS011;6085;49.452;8.502;2023-07-24T19:21:40;0.90;;;0.90;;
12048;SDS011;6085;49.452;8.502;2023-07-24T19:25:42;1.02;;;0.93;;
12048;SDS011;6085;49.452;8.502;2023-07-24T19:29:44;1.40;;;1.00;;
12048;SDS011;6085;49.452;8.502;2023-07-24T19:33:47;0.77;;;0.77;;
12048;SDS011;6085;49.452;8.502;2023-07-24T19:37:49;1.30;;;1.20;;
12048;SDS011;6085;49.452;8.502;2023-07-24T19:41:51;1.35;;;1.25;;
12048;SDS011;6085;49.452;8.502;2023-07-24T19:45:53;0.95;;;0.90;;
12048;SDS011;6085;49.452;8.502;2023-07-24T19:49:56;0.75;;;0.75;;
12048;SDS011;6085;49.452;8.502;2023-07-24T19:53:58;1.00;;;1.00;;
12048;SDS011;6085;49.452;8.502;2023-07-24T19:58:00;1.10;;;1.00;;
12048;SDS011;6085;49.452;8.502;2023-07-24T20:02:02;0.80;;;0.80;;
12048;SDS011;6085;49.452;8.502;2023-07-24T20:06:08;0.60;;;0.60;;
12048;SDS011;6085;49.452;8.502;2023-07-24T20:10:11;1.40;;;1.30;;
12048;SDS011;6085;49.452;8.502;2023-07-24T20:14:12;1.23;;;1.00;;
12048;SDS011;6085;49.452;8.502;2023-07-24T20:18:14;1.20;;;1.10;;
12048;SDS011;6085;49.452;8.502;2023-07-24T20:22:18;1.42;;;1.20;;
12048;SDS011;6085;49.452;8.502;2023-07-24T20:26:20;2.03;;;1.20;;
12048;SDS011;6085;49.452;8.502;2023-07-24T20:30:22;0.80;;;0.80;;
12048;SDS011;6085;49.452;8.502;2023-07-24T20:34:25;2.03;;;0.90;;
12048;SDS011;6085;49.452;8.502;2023-07-24T20:38:29;0.90;;;0.90;;
12048;SDS011;6085;49.452;8.502;2023-07-24T20:42:30;1.25;;;0.80;;
12048;SDS011;6085;49.452;8.502;2023-07-24T20:46:33;1.13;;;0.82;;
12048;SDS011;6085;49.452;8.502;2023-07-24T20:50:36;0.95;;;0.95;;
12048;SDS011;6085;49.452;8.502;2023-07-24T20:54:40;1.27;;;1.08;;
12048;SDS011;6085;49.452;8.502;2023-07-24T20:58:43;0.88;;;0.88;;
12048;SDS011;6085;49.452;8.502;2023-07-24T21:02:45;0.65;;;0.65;;
12048;SDS011;6085;49.452;8.502;2023-07-24T21:06:47;0.85;;;0.85;;
12048;SDS011;6085;49.452;8.502;2023-07-24T21:10:51;1.25;;;0.82;;
12048;SDS011;6085;49.452;8.502;2023-07-24T21:14:54;0.93;;;0.93;;
12048;SDS011;6085;49.452;8.502;2023-07-24T21:18:56;1.30;;;0.93;;
12048;SDS011;6085;49.452;8.502;2023-07-24T21:22:58;1.05;;;0.98;;
12048;SDS011;6085;49.452;8.502;2023-07-24T21:27:01;1.20;;;1.10;;
12048;SDS011;6085;49.452;8.502;2023-07-24T21:31:06;1.17;;;1.10;;
12048;SDS011;6085;49.452;8.502;2023-07-24T21:35:09;1.10;;;1.00;;
12048;SDS011;6085;49.452;8.502;2023-07-24T21:39:10;0.90;;;0.90;;
12048;SDS011;6085;49.452;8.502;2023-07-24T21:43:14;1.40;;;1.30;;
12048;SDS011;6085;49.452;8.502;2023-07-24T21:47:16;1.00;;;1.00;;
12048;SDS011;6085;49.452;8.502;2023-07-24T21:51:18;1.42;;;1.33;;
12048;SDS011;6085;49.452;8.502;2023-07-24T21:55:19;1.13;;;1.00;;
12048;SDS011;6085;49.452;8.502;2023-07-24T21:59:23;1.50;;;1.33;;
12048;SDS011;6085;49.452;8.502;2023-07-24T22:03:25;1.23;;;1.15;;
12048;SDS011;6085;49.452;8.502;2023-07-24T22:07:26;1.27;;;1.00;;
12048;SDS011;6085;49.452;8.502;2023-07-24T22:11:28;0.98;;;0.93;;
12048;SDS011;6085;49.452;8.502;2023-07-24T22:15:34;1.25;;;0.93;;
12048;SDS011;6085;49.452;8.502;2023-07-24T22:19:35;1.13;;;0.95;;
12048;SDS011;6085;49.452;8.502;2023-07-24T22:23:37;1.23;;;1.00;;
12048;SDS011;6085;49.452;8.502;2023-07-24T22:27:39;1.70;;;1.13;;
12048;SDS011;6085;49.452;8.502;2023-07-24T22:31:42;1.17;;;1.08;;
12048;SDS011;6085;49.452;8.502;2023-07-24T22:35:44;0.93;;;0.93;;
12048;SDS011;6085;49.452;8.502;2023-07-24T22:39:46;0.90;;;0.90;;
12048;SDS011;6085;49.452;8.502;2023-07-24T22:43:48;1.02;;;0.93;;
12048;SDS011;6085;49.452;8.502;2023-07-24T22:47:52;1.40;;;1.00;;
12048;SDS011;6085;49.452;8.502;2023-07-24T22:51:55;1.30;;;1.23;;
12048;SDS011;6085;49.452;8.502;2023-07-24T22:55:57;1.35;;;1.08;;
12048;SDS011;6085;49.452;8.502;2023-07-24T22:59:59;2.47;;;1.23;;
12048;SDS011;6085;49.452;8.502;2023-07-24T23:04:02;1.17;;;1.08;;
12048;SDS011;6085;49.452;8.502;2023-07-24T23:08:04;1.13;;;1.13;;
12048;SDS011;6085;49.452;8.502;2023-07-24T23:12:06;1.25;;;1.15;;
12048;SDS011;6085;49.452;8.502;2023-07-24T23:16:09;2.15;;;1.65;;
12048;SDS011;6085;49.452;8.502;2023-07-24T23:20:12;1.70;;;1.60;;
12048;SDS011;6085;49.452;8.502;2023-07-24T23:24:14;1.50;;;1.40;;
12048;SDS011;6085;49.452;8.502;2023-07-24T23:28:16;1.42;;;1.33;;
12048;SDS011;6085;49.452;8.502;2023-07-24T23:32:18;1.73;;;1.63;;
12048;SDS011;6085;49.452;8.502;2023-07-24T23:36:21;1.65;;;1.45;;
12048;SDS011;6085;49.452;8.502;2023-07-24T23:40:23;1.98;;;1.70;;
12048;SDS011;6085;49.452;8.502;2023-07-24T23:44:25;1.63;;;1.52;;
12048;SDS011;6085;49.452;8.502;2023-07-24T23:48:28;1.60;;;1.50;;
12048;SDS011;6085;49.452;8.502;2023-07-24T23:52:32;2.28;;;1.83;;
12048;SDS011;6085;49.452;8.502;2023-07-24T23:56:34;1.70;;;1.60;;
